createdAt,value
2023-05-21T00:00:24.732Z,48.44
2023-05-21T00:01:56.846Z,48.72
2023-05-21T00:03:30.434Z,49.05
2023-05-21T00:05:02.634Z,49.16
2023-05-21T00:06:36.433Z,48.99
2023-05-21T00:08:08.336Z,48.90
2023-05-21T00:09:39.857Z,49.13
2023-05-21T00:11:11.960Z,48.92
2023-05-21T00:12:43.528Z,48.93
2023-05-21T00:14:15.235Z,49.35
2023-05-21T00:15:47.005Z,48.98
2023-05-21T00:17:18.601Z,49.33
2023-05-21T00:18:50.277Z,49.00
2023-05-21T00:20:22.133Z,49.09
2023-05-21T00:21:54.950Z,49.17
2023-05-21T00:23:27.318Z,49.56
2023-05-21T00:24:59.344Z,49.27
2023-05-21T00:26:31.846Z,49.57
2023-05-21T00:28:03.521Z,49.58
2023-05-21T00:29:35.099Z,49.72
2023-05-21T00:31:07.429Z,49.13
2023-05-21T00:32:39.382Z,49.34
2023-05-21T00:34:11.810Z,49.52
2023-05-21T00:35:43.458Z,49.63
2023-05-21T00:37:15.618Z,49.73
2023-05-21T00:38:47.526Z,49.81
2023-05-21T00:40:19.812Z,49.76
2023-05-21T00:41:51.621Z,49.65
2023-05-21T00:43:26.548Z,49.63
2023-05-21T00:44:58.372Z,50.04
2023-05-21T00:46:30.207Z,50.14
2023-05-21T00:48:02.943Z,50.09
2023-05-21T00:49:35.462Z,49.97
2023-05-21T00:51:07.440Z,50.43
2023-05-21T00:52:42.527Z,50.43
2023-05-21T00:54:14.569Z,50.54
2023-05-21T00:55:47.094Z,50.32
2023-05-21T00:57:22.528Z,50.46
2023-05-21T00:58:55.389Z,50.36
2023-05-21T01:00:27.028Z,50.62
2023-05-21T01:02:04.433Z,50.56
2023-05-21T01:03:39.174Z,50.35
2023-05-21T01:05:11.365Z,50.50
2023-05-21T01:06:43.197Z,50.26
2023-05-21T01:08:15.476Z,50.41
2023-05-21T01:09:46.989Z,50.69
2023-05-21T01:11:18.786Z,50.61
2023-05-21T01:12:50.749Z,50.70
2023-05-21T01:14:23.156Z,50.69
2023-05-21T01:15:55.255Z,50.73
2023-05-21T01:17:27.760Z,50.55
2023-05-21T01:19:00.103Z,50.69
2023-05-21T01:20:32.787Z,50.62
2023-05-21T01:22:05.290Z,50.59
2023-05-21T01:23:36.955Z,50.89
2023-05-21T01:25:09.466Z,51.07
2023-05-21T01:26:42.960Z,51.21
2023-05-21T01:28:14.590Z,51.00
2023-05-21T01:29:46.271Z,51.04
2023-05-21T01:31:26.523Z,50.94
2023-05-21T01:32:58.482Z,50.96
2023-05-21T01:34:35.114Z,51.16
2023-05-21T01:36:07.245Z,51.38
2023-05-21T01:37:46.166Z,51.25
2023-05-21T01:39:22.953Z,51.39
2023-05-21T01:41:03.977Z,51.68
2023-05-21T01:42:36.218Z,51.86
2023-05-21T01:44:07.838Z,52.00
2023-05-21T01:45:40.455Z,52.06
2023-05-21T01:47:12.472Z,52.15
2023-05-21T01:48:44.433Z,52.14
2023-05-21T01:50:16.599Z,52.23
2023-05-21T01:51:48.831Z,51.92
2023-05-21T01:53:21.051Z,51.92
2023-05-21T01:54:54.694Z,52.07
2023-05-21T01:56:28.564Z,51.90
2023-05-21T01:58:02.319Z,52.08
2023-05-21T01:59:34.535Z,51.88
2023-05-21T02:01:06.198Z,51.86
2023-05-21T02:02:38.702Z,51.84
2023-05-21T02:04:10.359Z,51.87
2023-05-21T02:05:41.913Z,51.92
2023-05-21T02:07:16.289Z,51.80
2023-05-21T02:08:48.717Z,51.74
2023-05-21T02:10:21.363Z,51.90
2023-05-21T02:11:53.582Z,52.00
2023-05-21T02:13:26.555Z,51.95
2023-05-21T02:14:58.616Z,51.81
2023-05-21T02:16:30.628Z,52.05
2023-05-21T02:18:02.969Z,52.25
2023-05-21T02:19:35.104Z,52.25
2023-05-21T02:21:07.110Z,52.15
2023-05-21T02:22:39.578Z,52.29
2023-05-21T02:24:11.482Z,52.38
2023-05-21T02:25:43.072Z,52.58
2023-05-21T02:27:17.749Z,52.45
2023-05-21T02:28:49.571Z,52.45
2023-05-21T02:30:21.322Z,52.43
2023-05-21T02:31:53.368Z,52.47
2023-05-21T02:33:24.915Z,52.42
2023-05-21T02:34:56.891Z,52.32
2023-05-21T02:36:28.939Z,52.08
2023-05-21T02:38:03.251Z,52.24
2023-05-21T02:39:34.899Z,52.48
2023-05-21T02:41:06.678Z,52.54
2023-05-21T02:42:40.200Z,52.68
2023-05-21T02:44:12.213Z,52.51
2023-05-21T02:45:44.068Z,52.63
2023-05-21T02:47:15.807Z,52.49
2023-05-21T02:48:47.663Z,52.08
2023-05-21T02:50:19.359Z,52.48
2023-05-21T02:51:50.985Z,52.47
2023-05-21T02:53:23.144Z,52.68
2023-05-21T02:54:54.726Z,52.76
2023-05-21T02:56:26.678Z,52.81
2023-05-21T02:57:58.350Z,52.64
2023-05-21T02:59:30.038Z,52.66
2023-05-21T03:01:01.727Z,52.83
2023-05-21T03:02:33.583Z,53.02
2023-05-21T03:04:05.174Z,53.00
2023-05-21T03:05:38.549Z,53.04
2023-05-21T03:07:10.298Z,52.93
2023-05-21T03:08:42.008Z,53.03
2023-05-21T03:10:13.660Z,52.82
2023-05-21T03:11:45.269Z,52.91
2023-05-21T03:13:16.902Z,53.05
2023-05-21T03:14:49.094Z,52.92
2023-05-21T03:16:20.652Z,52.95
2023-05-21T03:17:54.597Z,52.88
2023-05-21T03:19:26.868Z,52.92
2023-05-21T03:20:59.085Z,52.82
2023-05-21T03:22:30.625Z,53.00
2023-05-21T03:24:03.303Z,52.99
2023-05-21T03:25:36.792Z,53.19
2023-05-21T03:27:08.535Z,53.19
2023-05-21T03:28:40.167Z,53.34
2023-05-21T03:30:12.416Z,53.21
2023-05-21T03:31:44.441Z,52.95
2023-05-21T03:33:16.633Z,53.04
2023-05-21T03:34:48.338Z,53.00
2023-05-21T03:36:20.657Z,52.91
2023-05-21T03:37:52.564Z,53.04
2023-05-21T03:39:24.344Z,53.29
2023-05-21T03:40:56.882Z,53.12
2023-05-21T03:42:28.522Z,53.13
2023-05-21T03:44:00.864Z,53.05
2023-05-21T03:45:32.753Z,53.22
2023-05-21T03:47:05.078Z,53.43
2023-05-21T03:48:36.828Z,53.72
2023-05-21T03:50:09.920Z,53.49
2023-05-21T03:51:41.756Z,53.72
2023-05-21T03:53:14.029Z,53.81
2023-05-21T03:54:45.960Z,53.61
2023-05-21T03:56:18.286Z,53.68
2023-05-21T03:57:49.998Z,53.62
2023-05-21T03:59:21.781Z,53.65
2023-05-21T04:00:53.886Z,53.81
2023-05-21T04:02:28.635Z,53.99
2023-05-21T04:04:01.231Z,53.75
2023-05-21T04:05:33.310Z,53.94
2023-05-21T04:07:05.374Z,53.79
2023-05-21T04:08:38.653Z,53.87
2023-05-21T04:10:10.800Z,53.77
2023-05-21T04:11:42.469Z,53.93
2023-05-21T04:13:14.889Z,53.93
2023-05-21T04:14:47.639Z,53.87
2023-05-21T04:16:19.581Z,53.97
2023-05-21T04:17:52.535Z,54.19
2023-05-21T04:19:24.799Z,54.27
2023-05-21T04:20:56.596Z,53.88
2023-05-21T04:22:28.563Z,53.95
2023-05-21T04:24:02.703Z,53.81
2023-05-21T04:25:34.690Z,53.84
2023-05-21T04:27:07.325Z,54.01
2023-05-21T04:28:42.820Z,54.13
2023-05-21T04:30:14.728Z,54.00
2023-05-21T04:31:46.611Z,53.69
2023-05-21T04:33:20.626Z,54.24
2023-05-21T04:34:52.297Z,53.88
2023-05-21T04:36:24.678Z,54.17
2023-05-21T04:37:56.447Z,54.47
2023-05-21T04:39:28.802Z,54.34
2023-05-21T04:41:04.009Z,54.28
2023-05-21T04:42:36.089Z,54.38
2023-05-21T04:44:08.032Z,54.20
2023-05-21T04:45:40.367Z,54.34
2023-05-21T04:47:15.026Z,54.20
2023-05-21T04:48:46.997Z,54.41
2023-05-21T04:50:18.842Z,54.10
2023-05-21T04:51:50.614Z,53.92
2023-05-21T04:53:22.864Z,53.88
2023-05-21T04:54:54.718Z,53.84
2023-05-21T04:56:31.874Z,53.80
2023-05-21T04:58:03.635Z,54.09
2023-05-21T04:59:35.379Z,54.00
2023-05-21T05:01:09.164Z,54.10
2023-05-21T05:02:40.899Z,53.72
2023-05-21T05:04:12.764Z,53.72
2023-05-21T05:05:44.604Z,53.60
2023-05-21T05:07:17.528Z,53.35
2023-05-21T05:08:49.801Z,53.43
2023-05-21T05:10:21.455Z,53.74
2023-05-21T05:11:53.195Z,53.29
2023-05-21T05:13:25.426Z,53.19
2023-05-21T05:14:57.059Z,53.16
2023-05-21T05:16:29.799Z,53.11
2023-05-21T05:18:02.141Z,53.15
2023-05-21T05:19:35.289Z,53.27
2023-05-21T05:21:06.899Z,53.05
2023-05-21T05:22:38.834Z,53.10
2023-05-21T05:24:10.652Z,52.95
2023-05-21T05:25:42.431Z,52.74
2023-05-21T05:27:14.676Z,52.90
2023-05-21T05:28:46.729Z,52.70
2023-05-21T05:30:18.311Z,52.47
2023-05-21T05:31:49.922Z,52.65
2023-05-21T05:33:21.555Z,52.54
2023-05-21T05:34:53.158Z,52.26
2023-05-21T05:36:24.828Z,52.09
2023-05-21T05:37:56.832Z,51.85
2023-05-21T05:39:28.468Z,51.77
2023-05-21T05:41:00.147Z,51.74
2023-05-21T05:42:31.806Z,51.61
2023-05-21T05:44:04.945Z,51.38
2023-05-21T05:45:36.847Z,51.34
2023-05-21T05:47:11.158Z,51.23
2023-05-21T05:48:43.171Z,51.22
2023-05-21T05:50:14.840Z,51.11
2023-05-21T05:51:47.175Z,50.97
2023-05-21T05:53:19.178Z,50.96
2023-05-21T05:54:50.862Z,50.99
2023-05-21T05:56:23.009Z,50.86
2023-05-21T05:57:55.034Z,50.81
2023-05-21T05:59:26.985Z,50.57
2023-05-21T06:00:59.367Z,50.73
2023-05-21T06:02:31.535Z,50.53
2023-05-21T06:04:03.716Z,50.59
2023-05-21T06:05:36.287Z,50.52
2023-05-21T06:07:09.051Z,50.43
2023-05-21T06:08:40.968Z,50.36
2023-05-21T06:10:12.860Z,50.08
2023-05-21T06:11:44.422Z,50.30
2023-05-21T06:13:16.366Z,50.08
2023-05-21T06:14:49.356Z,49.92
2023-05-21T06:16:21.157Z,49.88
2023-05-21T06:17:53.220Z,49.85
2023-05-21T06:19:25.453Z,49.44
2023-05-21T06:20:57.322Z,49.48
2023-05-21T06:22:29.518Z,49.46
2023-05-21T06:24:01.210Z,49.50
2023-05-21T06:25:32.918Z,49.67
2023-05-21T06:27:05.127Z,49.68
2023-05-21T06:28:37.259Z,49.74
2023-05-21T06:30:09.107Z,49.59
2023-05-21T06:31:40.728Z,49.45
2023-05-21T06:33:12.780Z,49.42
2023-05-21T06:34:44.596Z,49.27
2023-05-21T06:36:17.129Z,48.98
2023-05-21T06:37:49.019Z,48.61
2023-05-21T06:39:20.796Z,48.40
2023-05-21T06:40:52.989Z,48.41
2023-05-21T06:42:24.928Z,48.23
2023-05-21T06:43:57.807Z,48.24
2023-05-21T06:45:29.679Z,48.42
2023-05-21T06:47:01.648Z,48.14
2023-05-21T06:48:33.607Z,48.08
2023-05-21T06:50:05.523Z,48.04
2023-05-21T06:51:37.289Z,48.29
2023-05-21T06:53:08.873Z,48.20
2023-05-21T06:54:40.529Z,47.92
2023-05-21T06:56:13.231Z,47.99
2023-05-21T06:57:44.873Z,47.72
2023-05-21T06:59:16.705Z,47.50
2023-05-21T07:00:48.865Z,47.29
2023-05-21T07:02:20.985Z,47.28
2023-05-21T07:03:53.176Z,47.10
2023-05-21T07:05:25.816Z,47.05
2023-05-21T07:06:58.275Z,46.87
2023-05-21T07:08:30.031Z,46.63
2023-05-21T07:10:01.658Z,46.92
2023-05-21T07:11:33.912Z,46.50
2023-05-21T07:13:05.791Z,46.35
2023-05-21T07:14:37.505Z,46.34
2023-05-21T07:16:09.644Z,46.39
2023-05-21T07:17:41.425Z,46.27
2023-05-21T07:19:13.127Z,46.09
2023-05-21T07:20:44.922Z,46.25
2023-05-21T07:22:16.541Z,46.12
2023-05-21T07:23:48.640Z,46.13
2023-05-21T07:25:20.589Z,46.09
2023-05-21T07:26:52.784Z,45.83
2023-05-21T07:28:24.571Z,45.77
2023-05-21T07:29:56.832Z,45.66
2023-05-21T07:31:28.790Z,45.60
2023-05-21T07:33:00.847Z,45.56
2023-05-21T07:34:33.343Z,45.44
2023-05-21T07:36:05.632Z,45.55
2023-05-21T07:37:39.816Z,45.26
2023-05-21T07:39:12.233Z,45.13
2023-05-21T07:40:44.134Z,45.06
2023-05-21T07:42:15.968Z,44.89
2023-05-21T07:43:48.004Z,44.96
2023-05-21T07:45:19.836Z,44.83
2023-05-21T07:46:51.684Z,44.79
2023-05-21T07:48:23.729Z,44.83
2023-05-21T07:49:55.799Z,44.87
2023-05-21T07:51:27.943Z,44.60
2023-05-21T07:53:00.102Z,44.52
2023-05-21T07:54:31.843Z,44.21
2023-05-21T07:56:03.467Z,44.19
2023-05-21T07:57:35.831Z,44.22
2023-05-21T07:59:07.983Z,44.21
2023-05-21T08:00:44.538Z,44.24
2023-05-21T08:02:17.062Z,44.19
2023-05-21T08:03:48.961Z,44.13
2023-05-21T08:05:21.690Z,44.21
2023-05-21T08:06:54.211Z,44.18
2023-05-21T08:08:26.494Z,44.08
2023-05-21T08:09:59.064Z,44.06
2023-05-21T08:11:31.425Z,44.00
2023-05-21T08:13:03.092Z,44.00
2023-05-21T08:14:34.743Z,44.04
2023-05-21T08:16:06.865Z,44.00
2023-05-21T08:17:39.252Z,43.87
2023-05-21T08:19:11.638Z,43.85
2023-05-21T08:20:43.523Z,43.90
2023-05-21T08:22:15.875Z,43.85
2023-05-21T08:23:47.678Z,43.81
2023-05-21T08:25:19.780Z,43.60
2023-05-21T08:26:51.686Z,43.74
2023-05-21T08:28:27.902Z,43.76
2023-05-21T08:29:59.734Z,43.70
2023-05-21T08:31:31.717Z,43.67
2023-05-21T08:33:03.874Z,43.50
2023-05-21T08:34:36.145Z,43.78
2023-05-21T08:36:08.435Z,43.71
2023-05-21T08:37:40.405Z,43.73
2023-05-21T08:39:13.308Z,43.53
2023-05-21T08:40:46.284Z,43.59
2023-05-21T08:42:41.209Z,43.63
2023-05-21T08:44:13.097Z,43.60
2023-05-21T08:45:45.559Z,43.57
2023-05-21T08:47:17.554Z,43.57
2023-05-21T08:48:49.281Z,43.47
2023-05-21T08:50:21.064Z,43.41
2023-05-21T08:51:54.214Z,43.36
2023-05-21T08:53:29.208Z,43.52
2023-05-21T08:55:01.232Z,43.38
2023-05-21T08:56:36.792Z,43.36
2023-05-21T08:58:08.546Z,43.16
2023-05-21T08:59:44.424Z,43.20
2023-05-21T09:01:19.895Z,42.95
2023-05-21T09:02:54.792Z,43.19
2023-05-21T09:04:28.253Z,43.03
2023-05-21T09:06:00.533Z,42.81
2023-05-21T09:07:32.834Z,42.82
2023-05-21T09:09:10.080Z,42.85
2023-05-21T09:10:44.136Z,42.76
2023-05-21T09:12:16.287Z,42.61
2023-05-21T09:13:48.236Z,42.39
2023-05-21T09:15:20.043Z,42.49
2023-05-21T09:16:51.966Z,42.27
2023-05-21T09:18:23.934Z,42.29
2023-05-21T09:20:17.013Z,42.33
2023-05-21T09:21:49.140Z,42.03
2023-05-21T09:23:20.924Z,42.14
2023-05-21T09:24:52.698Z,42.14
2023-05-21T09:26:24.694Z,42.39
2023-05-21T09:27:56.502Z,42.01
2023-05-21T09:29:28.320Z,41.96
2023-05-21T09:31:00.684Z,41.90
2023-05-21T09:32:33.638Z,41.92
2023-05-21T09:34:05.981Z,41.93
2023-05-21T09:35:38.356Z,41.76
2023-05-21T09:37:23.682Z,41.78
2023-05-21T09:39:00.412Z,41.87
2023-05-21T09:40:32.712Z,41.71
2023-05-21T09:42:04.771Z,41.62
2023-05-21T09:43:37.018Z,41.64
2023-05-21T09:45:12.428Z,41.50
2023-05-21T09:46:44.357Z,41.36
2023-05-21T09:48:16.641Z,41.24
2023-05-21T09:49:49.619Z,41.11
2023-05-21T09:51:22.420Z,41.27
2023-05-21T09:52:55.499Z,41.20
2023-05-21T09:54:31.288Z,41.03
2023-05-21T09:56:04.204Z,41.15
2023-05-21T09:57:43.607Z,41.00
2023-05-21T09:59:16.090Z,41.00
2023-05-21T10:00:48.320Z,41.15
2023-05-21T10:02:21.673Z,41.14
2023-05-21T10:03:57.641Z,41.12
2023-05-21T10:05:29.606Z,41.01
2023-05-21T10:07:01.675Z,40.93
2023-05-21T10:08:34.227Z,40.80
2023-05-21T10:10:06.186Z,40.70
2023-05-21T10:11:37.973Z,40.69
2023-05-21T10:13:10.102Z,40.63
2023-05-21T10:14:41.788Z,40.71
2023-05-21T10:16:13.728Z,40.75
2023-05-21T10:17:46.249Z,40.64
2023-05-21T10:19:18.953Z,40.44
2023-05-21T10:20:50.871Z,40.46
2023-05-21T10:22:25.321Z,40.42
2023-05-21T10:23:57.771Z,40.36
2023-05-21T10:25:29.586Z,40.18
2023-05-21T10:27:02.250Z,40.01
2023-05-21T10:28:34.242Z,40.12
2023-05-21T10:30:06.454Z,40.10
2023-05-21T10:31:39.107Z,39.92
2023-05-21T10:33:13.435Z,39.81
2023-05-21T10:34:45.321Z,39.88
2023-05-21T10:36:17.161Z,39.90
2023-05-21T10:37:49.012Z,39.88
2023-05-21T10:39:21.169Z,39.81
2023-05-21T10:40:53.044Z,39.75
2023-05-21T10:42:27.580Z,39.81
2023-05-21T10:44:15.672Z,39.77
2023-05-21T10:46:02.438Z,39.63
2023-05-21T10:47:54.477Z,39.65
2023-05-21T10:49:29.429Z,39.48
2023-05-21T10:51:09.130Z,39.46
2023-05-21T10:52:52.739Z,39.41
2023-05-21T10:54:43.357Z,39.42
2023-05-21T10:56:15.165Z,39.30
2023-05-21T12:28:40.122Z,37.69
2023-05-21T12:30:12.380Z,37.61
2023-05-21T12:31:49.758Z,37.65
2023-05-21T12:33:25.064Z,37.32
2023-05-21T12:34:57.328Z,37.34
2023-05-21T12:36:34.986Z,37.47
2023-05-21T12:38:07.619Z,37.36
2023-05-21T12:39:40.300Z,37.26
2023-05-21T12:41:12.730Z,37.34
2023-05-21T12:42:44.878Z,37.38
2023-05-21T12:44:17.129Z,37.35
2023-05-21T12:45:49.428Z,37.14
2023-05-21T12:47:23.156Z,37.20
2023-05-21T12:48:55.775Z,37.26
2023-05-21T12:50:27.811Z,37.07
2023-05-21T12:51:59.956Z,37.22
2023-05-21T12:53:38.472Z,37.14
2023-05-21T12:55:11.951Z,37.00
2023-05-21T12:56:46.771Z,37.26
2023-05-21T12:58:21.991Z,37.27
2023-05-21T12:59:57.061Z,37.04
2023-05-21T13:01:29.405Z,37.07
2023-05-21T13:03:02.412Z,37.03
2023-05-21T13:04:36.506Z,37.24
2023-05-21T13:06:08.749Z,36.80
2023-05-21T13:07:40.417Z,36.84
2023-05-21T13:09:12.048Z,36.92
2023-05-21T13:10:43.877Z,36.78
2023-05-21T13:12:15.599Z,36.77
2023-05-21T13:16:15.255Z,36.83
2023-05-21T13:17:49.688Z,36.87
2023-05-21T13:19:52.729Z,36.87
2023-05-21T13:21:24.473Z,36.59
2023-05-21T13:22:56.730Z,36.52
2023-05-21T13:24:28.588Z,36.72
2023-05-21T13:26:00.292Z,36.64
2023-05-21T13:27:31.876Z,36.57
2023-05-21T13:29:03.884Z,36.55
2023-05-21T13:30:35.956Z,36.30
2023-05-21T13:32:07.886Z,36.45
2023-05-21T13:33:39.869Z,36.40
2023-05-21T13:35:12.722Z,36.32
2023-05-21T13:36:44.924Z,36.36
2023-05-21T13:38:16.854Z,36.20
2023-05-21T13:39:48.487Z,35.90
2023-05-21T13:41:20.344Z,35.73
2023-05-21T13:42:53.364Z,35.84
2023-05-21T13:44:25.101Z,35.90
2023-05-21T13:45:56.780Z,35.78
2023-05-21T13:47:28.625Z,36.05
2023-05-21T13:49:01.091Z,35.96
2023-05-21T13:50:32.828Z,36.11
2023-05-21T13:52:06.951Z,36.04
2023-05-21T13:53:38.703Z,36.02
2023-05-21T13:55:11.124Z,36.32
2023-05-21T13:56:42.822Z,36.27
2023-05-21T13:58:14.502Z,36.23
2023-05-21T13:59:46.086Z,36.06
2023-05-21T14:01:18.043Z,36.09
2023-05-21T14:02:50.481Z,35.74
2023-05-21T14:04:22.303Z,35.85
2023-05-21T14:05:54.432Z,36.10
2023-05-21T14:07:26.764Z,36.09
2023-05-21T14:09:01.563Z,35.99
2023-05-21T14:10:33.705Z,35.48
2023-05-21T14:12:06.611Z,35.77
2023-05-21T14:13:38.815Z,35.54
2023-05-21T14:15:10.796Z,35.64
2023-05-21T14:16:42.853Z,35.53
2023-05-21T14:18:14.527Z,35.65
2023-05-21T14:19:48.220Z,35.42
2023-05-21T14:21:20.005Z,35.52
2023-05-21T14:22:51.640Z,35.76
2023-05-21T14:24:23.458Z,35.75
2023-05-21T14:25:55.462Z,35.60
2023-05-21T14:27:27.131Z,35.54
2023-05-21T14:28:58.771Z,35.88
2023-05-21T14:30:30.624Z,35.36
2023-05-21T14:32:02.618Z,35.36
2023-05-21T14:33:34.876Z,35.73
2023-05-21T14:35:06.760Z,35.42
2023-05-21T14:36:38.480Z,35.30
2023-05-21T14:38:10.943Z,35.24
2023-05-21T14:39:42.716Z,35.11
2023-05-21T14:41:14.387Z,35.17
2023-05-21T14:42:46.379Z,35.52
2023-05-21T14:44:18.590Z,35.32
2023-05-21T14:45:50.444Z,35.39
2023-05-21T14:47:22.374Z,35.50
2023-05-21T14:48:55.887Z,35.57
2023-05-21T14:50:28.067Z,35.55
2023-05-21T14:51:59.818Z,35.41
2023-05-21T14:53:32.419Z,35.27
2023-05-21T14:55:04.576Z,35.33
2023-05-21T14:56:36.672Z,35.30
2023-05-21T14:58:08.341Z,35.44
2023-05-21T14:59:39.844Z,35.43
2023-05-21T15:01:11.529Z,35.16
2023-05-21T15:02:43.402Z,35.11
2023-05-21T15:04:15.065Z,35.46
2023-05-21T15:05:46.645Z,35.21
2023-05-21T15:07:18.239Z,35.34
2023-05-21T15:08:49.945Z,34.93
2023-05-21T15:10:21.886Z,35.47
2023-05-21T15:11:53.867Z,35.13
2023-05-21T15:13:25.683Z,35.52
2023-05-21T15:14:57.432Z,35.20
2023-05-21T15:16:29.165Z,35.21
2023-05-21T15:18:01.111Z,35.15
2023-05-21T15:19:33.270Z,35.10
2023-05-21T15:21:05.383Z,35.10
2023-05-21T15:22:37.065Z,35.44
2023-05-21T15:24:08.789Z,35.11
2023-05-21T15:25:40.598Z,35.11
2023-05-21T15:27:12.390Z,35.06
2023-05-21T15:28:44.327Z,35.14
2023-05-21T15:30:16.044Z,35.42
2023-05-21T15:31:48.640Z,35.43
2023-05-21T15:33:20.418Z,35.48
2023-05-21T15:34:52.385Z,35.19
2023-05-21T15:36:24.237Z,35.29
2023-05-21T15:37:56.143Z,35.42
2023-05-21T15:39:29.007Z,35.36
2023-05-21T15:41:00.528Z,35.54
2023-05-21T15:42:32.332Z,35.62
2023-05-21T15:44:04.204Z,35.55
2023-05-21T15:45:36.162Z,35.64
2023-05-21T15:47:08.142Z,35.57
2023-05-21T15:48:40.145Z,35.52
2023-05-21T15:50:12.401Z,35.50
2023-05-21T15:51:44.748Z,35.46
2023-05-21T15:53:16.659Z,35.56
2023-05-21T15:54:48.680Z,35.65
2023-05-21T15:56:23.590Z,35.72
2023-05-21T15:57:55.776Z,35.80
2023-05-21T15:59:30.742Z,35.80
2023-05-21T16:01:02.477Z,35.82
2023-05-21T16:02:34.383Z,35.86
2023-05-21T16:04:09.953Z,36.04
2023-05-21T16:05:41.687Z,36.06
2023-05-21T16:07:13.360Z,36.13
2023-05-21T16:08:45.157Z,36.13
2023-05-21T16:10:17.614Z,36.31
2023-05-21T16:11:49.696Z,36.43
2023-05-21T16:13:21.573Z,36.37
2023-05-21T16:14:53.364Z,36.37
2023-05-21T16:16:25.541Z,36.59
2023-05-21T16:17:57.186Z,36.50
2023-05-21T16:19:28.789Z,36.47
2023-05-21T16:21:00.659Z,36.45
2023-05-21T16:22:32.435Z,36.40
2023-05-21T16:24:04.258Z,36.38
2023-05-21T16:25:37.742Z,36.48
2023-05-21T16:27:09.686Z,36.47
2023-05-21T16:28:41.380Z,36.55
2023-05-21T16:30:14.220Z,36.50
2023-05-21T16:31:46.627Z,36.67
2023-05-21T16:33:19.402Z,36.56
2023-05-21T16:34:51.891Z,36.61
2023-05-21T16:36:24.058Z,36.67
2023-05-21T16:37:56.138Z,36.67
2023-05-21T16:39:28.380Z,36.73
2023-05-21T16:41:00.518Z,36.88
2023-05-21T16:42:32.134Z,36.98
2023-05-21T16:44:03.844Z,37.08
2023-05-21T16:45:39.163Z,37.03
2023-05-21T16:47:11.132Z,37.02
2023-05-21T16:48:42.846Z,36.93
2023-05-21T16:50:14.852Z,37.08
2023-05-21T16:51:46.533Z,37.13
2023-05-21T16:53:18.629Z,37.25
2023-05-21T16:54:50.353Z,37.51
2023-05-21T16:56:22.722Z,37.44
2023-05-21T16:57:54.441Z,37.71
2023-05-21T16:59:26.191Z,37.63
2023-05-21T17:00:58.168Z,37.84
2023-05-21T17:02:30.425Z,37.79
2023-05-21T17:04:02.851Z,37.79
2023-05-21T17:05:35.092Z,38.09
2023-05-21T17:07:07.213Z,38.12
2023-05-21T17:08:38.858Z,38.22
2023-05-21T17:10:11.299Z,38.35
2023-05-21T17:11:43.840Z,38.41
2023-05-21T17:13:22.301Z,38.20
2023-05-21T17:14:55.276Z,38.28
2023-05-21T17:16:27.063Z,38.50
2023-05-21T17:17:58.960Z,38.44
2023-05-21T17:19:31.208Z,38.44
2023-05-21T17:21:04.070Z,38.54
2023-05-21T17:22:36.474Z,38.61
2023-05-21T17:24:08.439Z,38.73
2023-05-21T17:25:40.629Z,38.72
2023-05-21T17:27:13.083Z,38.59
2023-05-21T17:28:44.859Z,38.65
2023-05-21T17:30:16.606Z,38.49
2023-05-21T17:31:48.342Z,38.68
2023-05-21T17:33:20.088Z,38.46
2023-05-21T17:34:55.413Z,38.49
2023-05-21T17:36:27.022Z,38.71
2023-05-21T17:37:58.678Z,38.60
2023-05-21T17:39:30.582Z,38.40
2023-05-21T17:41:03.327Z,38.69
2023-05-21T17:42:35.112Z,38.66
2023-05-21T17:44:06.702Z,38.58
2023-05-21T17:45:38.688Z,38.70
2023-05-21T17:47:10.651Z,38.38
2023-05-21T17:48:42.696Z,38.57
2023-05-21T17:50:14.633Z,38.68
2023-05-21T17:51:46.617Z,38.55
2023-05-21T17:53:18.490Z,38.57
2023-05-21T17:54:50.349Z,38.51
2023-05-21T17:56:22.406Z,38.50
2023-05-21T17:57:54.055Z,38.55
2023-05-21T17:59:26.149Z,38.52
2023-05-21T18:00:58.245Z,38.71
2023-05-21T18:02:30.070Z,38.75
2023-05-21T18:04:03.077Z,38.79
2023-05-21T18:05:34.853Z,38.78
2023-05-21T18:07:06.623Z,38.88
2023-05-21T18:08:38.347Z,38.62
2023-05-21T18:10:10.510Z,38.95
2023-05-21T18:11:42.661Z,38.97
2023-05-21T18:13:14.615Z,38.71
2023-05-21T18:14:46.141Z,38.85
2023-05-21T18:16:17.857Z,38.87
2023-05-21T18:17:49.794Z,38.87
2023-05-21T18:19:21.497Z,38.87
2023-05-21T18:20:53.120Z,39.05
2023-05-21T18:22:25.245Z,39.00
2023-05-21T18:23:57.130Z,38.91
2023-05-21T18:25:28.904Z,38.99
2023-05-21T18:27:00.903Z,38.82
2023-05-21T18:28:33.645Z,39.17
2023-05-21T18:30:06.689Z,39.07
2023-05-21T18:31:38.706Z,38.98
2023-05-21T18:33:11.362Z,38.97
2023-05-21T18:34:47.786Z,38.71
2023-05-21T18:36:20.025Z,38.95
2023-05-21T18:37:52.386Z,38.93
2023-05-21T18:39:24.939Z,39.16
2023-05-21T18:40:56.851Z,39.22
2023-05-21T18:42:28.493Z,39.25
2023-05-21T18:44:01.920Z,39.31
2023-05-21T18:45:34.138Z,39.23
2023-05-21T18:47:06.307Z,39.42
2023-05-21T18:48:38.441Z,39.47
2023-05-21T18:50:11.260Z,39.37
2023-05-21T18:51:43.187Z,39.63
2023-05-21T18:53:15.105Z,39.71
2023-05-21T18:54:47.192Z,39.67
2023-05-21T18:56:18.852Z,39.54
2023-05-21T18:57:51.322Z,39.55
2023-05-21T18:59:23.909Z,39.44
2023-05-21T19:00:55.598Z,39.60
2023-05-21T19:02:28.257Z,39.66
2023-05-21T19:04:00.213Z,39.56
2023-05-21T19:05:32.571Z,39.63
2023-05-21T19:07:04.213Z,39.91
2023-05-21T19:08:35.925Z,39.77
2023-05-21T19:10:08.011Z,39.62
2023-05-21T19:11:39.757Z,40.02
2023-05-21T19:13:11.475Z,39.92
2023-05-21T19:14:46.430Z,40.11
2023-05-21T19:16:18.184Z,39.90
2023-05-21T19:17:50.113Z,40.20
2023-05-21T19:19:22.104Z,40.07
2023-05-21T19:20:53.851Z,40.09
2023-05-21T19:22:26.227Z,40.19
2023-05-21T19:23:57.917Z,40.28
2023-05-21T19:25:32.068Z,40.32
2023-05-21T19:27:04.158Z,40.26
2023-05-21T19:28:37.086Z,40.28
2023-05-21T19:30:09.002Z,40.45
2023-05-21T19:31:40.833Z,40.51
2023-05-21T19:33:12.582Z,40.33
2023-05-21T19:34:44.512Z,40.47
2023-05-21T19:36:16.804Z,40.46
2023-05-21T19:37:48.926Z,40.56
2023-05-21T19:39:21.289Z,40.47
2023-05-21T19:40:53.025Z,40.33
2023-05-21T19:42:25.000Z,40.40
2023-05-21T19:43:57.074Z,40.52
2023-05-21T19:45:29.122Z,40.39
2023-05-21T19:47:01.582Z,40.51
2023-05-21T19:48:34.191Z,40.36
2023-05-21T19:50:07.123Z,40.11
2023-05-21T19:51:39.141Z,40.34
2023-05-21T19:53:10.724Z,40.22
2023-05-21T19:54:42.318Z,40.14
2023-05-21T19:56:14.184Z,40.19
2023-05-21T19:57:46.111Z,40.17
2023-05-21T19:59:18.392Z,40.25
2023-05-21T20:00:51.044Z,40.18
2023-05-21T20:02:23.657Z,40.26
2023-05-21T20:03:55.367Z,40.29
2023-05-21T20:05:26.981Z,40.04
2023-05-21T20:06:59.861Z,39.89
2023-05-21T20:08:31.953Z,40.03
2023-05-21T20:10:03.969Z,39.96
2023-05-21T20:11:36.398Z,39.92
2023-05-21T20:13:09.301Z,39.87
2023-05-21T20:14:42.026Z,40.13
2023-05-21T20:16:14.939Z,39.84
2023-05-21T20:17:46.885Z,39.89
2023-05-21T20:19:22.986Z,40.05
2023-05-21T20:20:55.332Z,40.02
2023-05-21T20:22:27.821Z,40.13
2023-05-21T20:23:59.606Z,40.20
2023-05-21T20:25:31.282Z,40.12
2023-05-21T20:27:02.946Z,40.23
2023-05-21T20:28:35.236Z,40.23
2023-05-21T20:30:07.722Z,40.28
2023-05-21T20:31:39.357Z,40.25
2023-05-21T20:33:11.327Z,40.30
2023-05-21T20:34:58.385Z,40.42
2023-05-21T20:36:35.291Z,40.31
2023-05-21T20:38:08.752Z,40.50
2023-05-21T20:39:40.641Z,40.60
2023-05-21T20:41:12.500Z,40.40
2023-05-21T20:42:45.559Z,40.38
2023-05-21T20:44:17.649Z,40.36
2023-05-21T20:45:50.036Z,40.18
2023-05-21T20:47:23.656Z,40.16
2023-05-21T20:48:55.245Z,39.99
2023-05-21T20:50:28.803Z,40.07
2023-05-21T20:52:00.982Z,40.02
2023-05-21T20:53:33.823Z,39.90
2023-05-21T20:55:06.252Z,39.89
2023-05-21T20:56:42.548Z,39.90
2023-05-21T20:58:15.320Z,39.95
2023-05-21T20:59:46.909Z,39.97
2023-05-21T21:01:19.867Z,40.02
2023-05-21T21:02:51.537Z,40.02
2023-05-21T21:04:25.014Z,39.94
2023-05-21T21:05:58.560Z,39.90
2023-05-21T21:07:34.653Z,40.09
2023-05-21T21:09:07.163Z,39.89
2023-05-21T21:10:41.349Z,40.11
2023-05-21T21:12:26.185Z,39.94
2023-05-21T21:13:58.653Z,39.98
2023-05-21T21:15:30.259Z,40.05
2023-05-21T21:17:02.149Z,40.08
2023-05-21T21:18:33.807Z,40.08
2023-05-21T21:20:07.709Z,40.04
2023-05-21T21:21:39.694Z,40.17
2023-05-21T21:23:11.691Z,40.15
2023-05-21T21:24:44.369Z,40.28
2023-05-21T21:26:17.367Z,40.61